Hovedside
METAR-TAF:

METAR-TAF

Lufthavner :

Kalmar lufthavn

Kalmar, Sverige

breddegrad: 56-44N, lengdegrad: 016-18E, høyde over havet: 16 m

Gjeldene værobservasjon

Denne rapporten ble laget for 27 minutter siden, klokken 18:20 UTC
Vind 8 kt fra Nordøst
Temperatur 4°C
Luftfuktighet 87%
Trykk 1033 hPa
Sikt 10 km eller mer
Få skyer i en høyde av 1500 ft
Spredte skyer i en høyde av 1900 ft
Brutte skyer i en høyde av 2700 ft
lett duskregn

METAR: ESMQ 191820Z 05008KT 9999 -DZ FEW015 SCT019 BKN027 04/02 Q1033

Tid: 19:47 (18:47 UTC)

Varsel

Denne rapporten ble laget for 1 time og 17 minutter siden, klokken 17:30 UTC
Varsel gyldig fra 19. klokken 18 UTC til 19. klokken 23 UTC
Vind 8 kt fra Øst-nordøst
Sikt 10 km eller mer
Brutte skyer i en høyde av 2500 ft
Midlertidig
fra 19. klokken 18 UTC til 19. klokken 23 UTC
Spredte skyer i en høyde av 1500 ft, Tårnskyer (cumulus).

TAF: ESMQ 191730Z 1918/1923 06008KT 9999 BKN025 TEMPO 1918/1923 SCT015TCU

Værobservasjoner og værvarsel for over 4000 flyplasser (METAR- og TAF-rapporter).

Tilgjengelige stasjoner er representert av de røde og gule prikkene på kartet.

Hold musepekeren over prikken for å se navnet på stasjonen.

Klikk så for å se værobservasjoner og -varsler.

For å forandre kartet kan du klikke på den grønne knappen med svart kryss for å zoome inn, på den grønne knappen med strek for å zoome ut, eller på de grønne pilene for å se tilstøtende kart.


METAR-TAF: